createdAt,value
2018-02-02T00:01:31.992Z,2.62
2018-02-02T00:03:59.567Z,2.52
2018-02-02T00:06:27.097Z,2.54
2018-02-02T00:08:54.617Z,2.53
2018-02-02T00:11:22.185Z,2.55
2018-02-02T00:13:50.713Z,2.53
2018-02-02T00:16:18.237Z,2.58
2018-02-02T00:18:45.786Z,2.58
2018-02-02T00:21:13.343Z,2.54
2018-02-02T00:23:40.850Z,2.54
2018-02-02T00:26:08.450Z,2.55
2018-02-02T00:28:36.086Z,2.52
2018-02-02T00:31:03.606Z,2.53
2018-02-02T00:33:31.510Z,2.58
2018-02-02T00:35:59.026Z,2.46
2018-02-02T00:38:26.533Z,2.45
2018-02-02T00:40:54.394Z,2.40
2018-02-02T00:43:21.900Z,2.39
2018-02-02T00:45:49.425Z,2.34
2018-02-02T00:48:17.277Z,2.34
2018-02-02T00:50:50.385Z,2.39
2018-02-02T00:53:18.235Z,2.36
2018-02-02T00:55:45.784Z,2.32
2018-02-02T00:58:13.666Z,2.30
2018-02-02T01:00:41.316Z,2.33
2018-02-02T01:03:09.096Z,2.33
2018-02-02T01:05:36.652Z,2.37
2018-02-02T01:08:04.223Z,2.36
2018-02-02T01:10:31.762Z,2.32
2018-02-02T01:12:59.543Z,2.20
2018-02-02T01:15:27.319Z,2.28
2018-02-02T01:17:55.182Z,2.25
2018-02-02T01:20:22.742Z,2.26
2018-02-02T01:22:50.353Z,2.21
2018-02-02T01:25:17.887Z,2.23
2018-02-02T01:27:45.439Z,2.36
2018-02-02T01:30:13.022Z,2.42
2018-02-02T01:32:40.610Z,2.39
2018-02-02T01:35:08.409Z,2.33
2018-02-02T01:37:35.961Z,2.32
2018-02-02T01:40:03.510Z,2.25
2018-02-02T01:42:31.021Z,2.22
2018-02-02T01:44:58.869Z,2.25
2018-02-02T01:47:26.397Z,2.29
2018-02-02T01:49:53.918Z,2.29
2018-02-02T01:52:21.481Z,2.30
2018-02-02T01:54:49.014Z,2.29
2018-02-02T01:57:17.485Z,2.30
2018-02-02T01:59:45.035Z,2.25
2018-02-02T02:02:12.614Z,2.20
2018-02-02T02:04:40.131Z,2.20
2018-02-02T02:07:07.709Z,2.25
2018-02-02T02:09:35.489Z,2.22
2018-02-02T02:12:03.022Z,2.28
2018-02-02T02:14:30.569Z,2.28
2018-02-02T02:16:58.090Z,2.31
2018-02-02T02:19:25.641Z,2.28
2018-02-02T02:21:53.238Z,2.26
2018-02-02T02:24:20.746Z,2.14
2018-02-02T02:26:48.270Z,2.05
2018-02-02T02:29:15.813Z,1.92
2018-02-02T02:31:43.334Z,1.87
2018-02-02T02:34:10.841Z,1.83
2018-02-02T02:36:38.398Z,1.79
2018-02-02T02:39:05.940Z,1.82
2018-02-02T02:41:33.470Z,1.86
2018-02-02T02:44:01.014Z,1.81
2018-02-02T02:46:28.556Z,1.84
2018-02-02T02:48:56.094Z,1.90
2018-02-02T02:51:23.671Z,1.93
2018-02-02T02:53:51.215Z,1.90
2018-02-02T02:56:18.736Z,1.89
2018-02-02T02:58:46.289Z,1.90
2018-02-02T03:01:13.866Z,1.73
2018-02-02T03:03:41.391Z,1.69
2018-02-02T03:06:08.922Z,1.70
2018-02-02T03:08:36.481Z,1.74
2018-02-02T03:11:04.020Z,1.64
2018-02-02T03:13:31.865Z,1.60
2018-02-02T03:15:59.409Z,1.57
2018-02-02T03:18:26.925Z,1.67
2018-02-02T03:20:54.469Z,1.66
2018-02-02T03:23:22.002Z,1.67
2018-02-02T03:25:49.534Z,1.69
2018-02-02T03:28:17.058Z,1.65
2018-02-02T03:30:44.628Z,1.69
2018-02-02T03:33:12.158Z,1.64
2018-02-02T03:35:39.709Z,1.52
2018-02-02T03:38:07.235Z,1.56
2018-02-02T03:40:34.769Z,1.64
2018-02-02T03:43:02.337Z,1.61
2018-02-02T03:45:29.874Z,1.44
2018-02-02T03:47:57.393Z,1.46
2018-02-02T03:50:24.942Z,1.48
2018-02-02T03:52:52.480Z,1.41
2018-02-02T03:55:20.002Z,1.44
2018-02-02T03:57:47.555Z,1.43
2018-02-02T04:00:15.321Z,1.45
2018-02-02T04:02:42.881Z,1.41
2018-02-02T04:05:10.445Z,1.40
2018-02-02T04:07:37.977Z,1.37
2018-02-02T04:10:05.558Z,1.40
2018-02-02T04:12:33.080Z,1.42
2018-02-02T04:15:00.625Z,1.48
2018-02-02T04:17:28.183Z,1.44
2018-02-02T04:19:55.958Z,1.49
2018-02-02T04:22:23.798Z,1.55
2018-02-02T04:24:51.344Z,1.50
2018-02-02T04:27:18.901Z,1.39
2018-02-02T04:29:46.446Z,1.38
2018-02-02T04:32:14.024Z,1.36
2018-02-02T04:34:41.580Z,1.35
2018-02-02T04:37:09.242Z,1.32
2018-02-02T04:39:36.763Z,1.31
2018-02-02T04:42:04.275Z,1.20
2018-02-02T04:44:31.853Z,1.17
2018-02-02T04:46:59.432Z,1.16
2018-02-02T04:49:26.991Z,1.16
2018-02-02T04:51:54.512Z,1.20
2018-02-02T04:54:22.057Z,1.16
2018-02-02T04:56:49.660Z,1.17
2018-02-02T04:59:17.265Z,1.17
2018-02-02T05:01:44.812Z,1.15
2018-02-02T05:04:12.611Z,1.14
2018-02-02T05:06:40.221Z,1.13
2018-02-02T05:09:08.039Z,1.15
2018-02-02T05:11:35.554Z,1.21
2018-02-02T05:14:03.081Z,1.26
2018-02-02T05:16:30.602Z,1.30
2018-02-02T05:18:58.211Z,1.14
2018-02-02T05:21:25.725Z,1.11
2018-02-02T05:23:53.313Z,1.14
2018-02-02T05:26:20.846Z,1.24
2018-02-02T05:28:48.641Z,1.21
2018-02-02T05:31:16.235Z,1.17
2018-02-02T05:33:43.762Z,1.04
2018-02-02T05:36:11.376Z,1.02
2018-02-02T05:38:38.915Z,1.03
2018-02-02T05:41:06.798Z,1.09
2018-02-02T05:43:34.610Z,1.12
2018-02-02T05:46:02.134Z,1.12
2018-02-02T05:48:29.784Z,1.10
2018-02-02T05:50:57.317Z,1.17
2018-02-02T05:53:24.986Z,1.21
2018-02-02T05:55:52.541Z,1.11
2018-02-02T05:58:20.058Z,1.20
2018-02-02T06:00:47.628Z,1.20
2018-02-02T06:03:15.174Z,1.32
2018-02-02T06:05:42.715Z,1.31
2018-02-02T06:08:10.630Z,1.24
2018-02-02T06:10:38.133Z,1.28
2018-02-02T06:13:05.723Z,1.26
2018-02-02T06:15:33.289Z,1.33
2018-02-02T06:18:00.842Z,1.38
2018-02-02T06:20:28.408Z,1.41
2018-02-02T06:22:56.177Z,1.31
2018-02-02T06:25:25.038Z,1.38
2018-02-02T06:27:52.690Z,1.37
2018-02-02T06:30:20.235Z,1.41
2018-02-02T06:32:47.814Z,1.41
2018-02-02T06:35:15.362Z,1.45
2018-02-02T06:37:42.902Z,1.50
2018-02-02T06:40:10.474Z,1.56
2018-02-02T06:42:38.007Z,1.40
2018-02-02T06:45:05.558Z,1.42
2018-02-02T06:47:33.081Z,1.45
2018-02-02T06:50:00.634Z,1.58
2018-02-02T06:52:28.161Z,1.48
2018-02-02T06:54:56.011Z,1.56
2018-02-02T06:57:23.588Z,1.51
2018-02-02T06:59:51.443Z,1.46
2018-02-02T07:02:18.983Z,1.51
2018-02-02T07:04:46.514Z,1.60
2018-02-02T07:07:14.433Z,1.66
2018-02-02T07:09:42.227Z,1.66
2018-02-02T07:12:09.768Z,1.64
2018-02-02T07:14:37.362Z,1.63
2018-02-02T07:17:04.881Z,1.64
2018-02-02T07:19:32.454Z,1.66
2018-02-02T07:22:00.056Z,1.65
2018-02-02T07:24:27.680Z,1.69
2018-02-02T07:26:55.241Z,1.77
2018-02-02T07:29:23.040Z,1.69
2018-02-02T07:31:51.284Z,1.82
2018-02-02T07:34:18.944Z,1.82
2018-02-02T07:36:46.482Z,1.90
2018-02-02T07:39:14.362Z,1.96
2018-02-02T07:41:42.386Z,1.92
2018-02-02T07:44:09.948Z,1.98
2018-02-02T07:46:37.475Z,1.85
2018-02-02T07:49:05.194Z,1.94
2018-02-02T07:51:32.762Z,2.07
2018-02-02T07:54:00.283Z,2.04
2018-02-02T07:56:27.855Z,1.99
2018-02-02T07:58:55.383Z,1.94
2018-02-02T08:01:22.987Z,1.99
2018-02-02T08:03:50.512Z,2.06
2018-02-02T08:06:18.130Z,1.98
2018-02-02T08:08:45.974Z,2.01
2018-02-02T08:11:13.787Z,2.20
2018-02-02T08:13:41.394Z,2.14
2018-02-02T08:16:08.935Z,2.12
2018-02-02T08:18:36.479Z,2.25
2018-02-02T08:21:04.234Z,2.21
2018-02-02T08:23:31.789Z,2.17
2018-02-02T08:25:59.308Z,2.27
2018-02-02T08:28:27.062Z,2.33
2018-02-02T08:30:54.620Z,2.39
2018-02-02T08:33:22.257Z,2.29
2018-02-02T08:35:50.100Z,2.35
2018-02-02T08:38:17.937Z,2.35
2018-02-02T08:40:45.729Z,2.32
2018-02-02T08:43:13.236Z,2.41
2018-02-02T08:45:40.807Z,2.36
2018-02-02T08:48:08.350Z,2.39
2018-02-02T08:50:35.892Z,2.43
2018-02-02T08:53:03.420Z,2.51
2018-02-02T08:55:31.312Z,2.54
2018-02-02T08:57:59.174Z,2.54
2018-02-02T09:00:26.786Z,2.79
2018-02-02T09:02:54.607Z,2.87
2018-02-02T09:05:22.158Z,2.85
2018-02-02T09:07:49.684Z,2.66
2018-02-02T09:10:17.487Z,2.99
2018-02-02T09:12:45.028Z,2.92
2018-02-02T09:15:12.568Z,3.14
2018-02-02T09:17:40.122Z,3.11
2018-02-02T09:20:07.760Z,3.26
2018-02-02T09:22:35.288Z,3.40
2018-02-02T09:25:03.155Z,3.29
2018-02-02T09:27:30.914Z,3.38
2018-02-02T09:29:58.480Z,3.22
2018-02-02T09:32:26.007Z,3.43
2018-02-02T09:34:53.549Z,3.38
2018-02-02T09:37:21.062Z,3.01
2018-02-02T09:39:48.602Z,2.92
2018-02-02T09:42:16.199Z,3.07
2018-02-02T09:44:43.758Z,3.00
2018-02-02T09:47:11.276Z,2.97
2018-02-02T09:49:38.802Z,3.08
2018-02-02T09:52:06.361Z,2.96
2018-02-02T09:54:33.869Z,3.08
2018-02-02T09:57:01.453Z,3.30
2018-02-02T09:59:29.141Z,3.46
2018-02-02T10:01:57.350Z,3.72
2018-02-02T10:04:25.150Z,3.59
2018-02-02T10:06:52.917Z,3.48
2018-02-02T10:09:20.463Z,3.55
2018-02-02T10:11:48.347Z,3.61
2018-02-02T10:14:15.926Z,3.54
2018-02-02T10:16:43.499Z,3.60
2018-02-02T10:19:11.042Z,3.57
2018-02-02T10:21:38.630Z,3.68
2018-02-02T10:24:07.499Z,3.74
2018-02-02T10:26:35.053Z,3.84
2018-02-02T10:29:02.590Z,3.95
2018-02-02T10:31:30.172Z,4.03
2018-02-02T10:33:57.929Z,3.98
2018-02-02T10:36:25.592Z,4.07
2018-02-02T10:38:53.125Z,4.20
2018-02-02T10:41:20.698Z,4.26
2018-02-02T10:43:48.233Z,4.27
2018-02-02T10:46:15.775Z,4.22
2018-02-02T10:48:43.314Z,4.21
2018-02-02T10:51:10.843Z,4.34
2018-02-02T10:53:38.394Z,4.67
2018-02-02T10:56:05.996Z,4.70
2018-02-02T10:58:33.559Z,4.66
2018-02-02T11:01:06.752Z,4.79
2018-02-02T11:03:34.853Z,4.95
2018-02-02T11:06:02.580Z,4.74
2018-02-02T11:08:30.146Z,4.73
2018-02-02T11:10:57.709Z,4.84
2018-02-02T11:13:25.383Z,4.84
2018-02-02T11:15:53.024Z,5.04
2018-02-02T11:18:20.545Z,5.24
2018-02-02T11:20:48.346Z,5.07
2018-02-02T11:23:16.212Z,5.10
2018-02-02T11:25:43.779Z,5.17
2018-02-02T11:28:11.503Z,5.23
2018-02-02T11:30:39.029Z,5.35
2018-02-02T11:33:06.740Z,5.38
2018-02-02T11:35:34.346Z,5.40
2018-02-02T11:38:01.924Z,5.35
2018-02-02T11:40:29.669Z,5.32
2018-02-02T11:42:57.508Z,5.38
2018-02-02T11:45:25.487Z,5.24
2018-02-02T11:47:53.071Z,5.24
2018-02-02T11:50:20.907Z,5.33
2018-02-02T11:52:48.421Z,5.17
2018-02-02T11:55:16.351Z,5.24
2018-02-02T11:57:43.873Z,5.45
2018-02-02T12:00:11.445Z,5.56
2018-02-02T12:02:38.994Z,5.63
2018-02-02T12:05:06.498Z,5.55
2018-02-02T12:07:34.084Z,5.56
2018-02-02T12:10:01.608Z,5.70
2018-02-02T12:12:29.317Z,5.60
2018-02-02T12:14:56.882Z,5.56
2018-02-02T12:17:24.482Z,5.57
2018-02-02T12:19:54.306Z,5.51
2018-02-02T12:22:27.408Z,5.33
2018-02-02T12:28:01.569Z,5.30
2018-02-02T12:30:43.993Z,5.31
2018-02-02T12:33:16.205Z,5.24
2018-02-02T12:35:49.149Z,5.18
2018-02-02T12:38:16.763Z,5.28
2018-02-02T12:40:44.359Z,5.23
2018-02-02T12:43:11.928Z,5.39
2018-02-02T12:45:39.428Z,5.26
2018-02-02T12:48:11.890Z,5.21
2018-02-02T12:50:51.174Z,5.19
2018-02-02T12:53:18.760Z,5.07
2018-02-02T12:55:46.577Z,5.07
2018-02-02T12:58:14.454Z,5.02
2018-02-02T13:00:42.032Z,5.01
2018-02-02T13:03:09.547Z,5.18
2018-02-02T13:05:37.115Z,5.25
2018-02-02T13:08:04.636Z,5.07
2018-02-02T13:10:32.190Z,5.06
2018-02-02T13:12:59.726Z,5.00
2018-02-02T13:15:27.589Z,5.02
2018-02-02T13:17:55.223Z,4.99
2018-02-02T13:20:22.748Z,5.13
2018-02-02T13:22:50.320Z,5.06
2018-02-02T13:25:17.840Z,5.13
2018-02-02T13:27:45.416Z,5.19
2018-02-02T13:30:12.935Z,5.12
2018-02-02T13:32:40.543Z,5.01
2018-02-02T13:35:08.065Z,5.11
2018-02-02T13:37:35.621Z,5.11
2018-02-02T13:40:03.142Z,4.95
2018-02-02T13:42:30.767Z,5.05
2018-02-02T13:44:58.302Z,5.16
2018-02-02T13:47:25.857Z,5.23
2018-02-02T13:49:53.441Z,5.14
2018-02-02T13:52:20.975Z,5.23
2018-02-02T13:54:48.509Z,5.26
2018-02-02T13:57:16.319Z,5.19
2018-02-02T13:59:43.857Z,5.15
2018-02-02T14:02:11.642Z,5.21
2018-02-02T14:04:39.219Z,5.23
2018-02-02T14:07:06.744Z,5.19
2018-02-02T14:09:34.408Z,5.13
2018-02-02T14:12:02.187Z,5.27
2018-02-02T14:14:29.874Z,5.29
2018-02-02T14:16:57.445Z,5.17
2018-02-02T14:19:24.966Z,5.26
2018-02-02T14:21:52.493Z,5.22
2018-02-02T14:24:20.012Z,5.25
2018-02-02T14:26:47.572Z,5.24
2018-02-02T14:29:15.353Z,5.19
2018-02-02T14:31:43.058Z,5.13
2018-02-02T14:34:10.614Z,5.10
2018-02-02T14:36:38.226Z,5.14
2018-02-02T14:39:05.786Z,5.15
2018-02-02T14:41:33.322Z,5.05
2018-02-02T14:44:01.047Z,5.06
2018-02-02T14:46:28.606Z,4.86
2018-02-02T14:48:56.167Z,4.73
2018-02-02T14:51:23.986Z,4.68
2018-02-02T14:53:51.556Z,4.72
2018-02-02T14:56:19.114Z,4.69
2018-02-02T14:58:46.976Z,4.84
2018-02-02T15:01:14.500Z,4.72
2018-02-02T15:03:42.400Z,4.77
2018-02-02T15:06:09.954Z,4.74
2018-02-02T15:08:37.508Z,4.70
2018-02-02T15:11:05.036Z,4.62
2018-02-02T15:13:32.614Z,4.70
2018-02-02T15:16:00.145Z,4.71
2018-02-02T15:18:27.749Z,4.73
2018-02-02T15:20:55.528Z,4.60
2018-02-02T15:23:23.114Z,4.62
2018-02-02T15:25:50.698Z,4.61
2018-02-02T15:28:18.514Z,4.63
2018-02-02T15:30:46.061Z,4.59
2018-02-02T15:33:13.586Z,4.42
2018-02-02T15:35:41.634Z,4.44
2018-02-02T15:38:09.380Z,4.43
2018-02-02T15:40:36.965Z,4.39
2018-02-02T15:43:04.483Z,4.25
2018-02-02T15:45:31.997Z,4.29
2018-02-02T15:47:59.577Z,4.27
2018-02-02T15:50:27.113Z,4.32
2018-02-02T15:52:54.667Z,4.18
2018-02-02T15:55:22.504Z,4.24
2018-02-02T15:57:50.078Z,4.27
2018-02-02T16:00:17.663Z,4.28
2018-02-02T16:02:45.214Z,4.36
2018-02-02T16:05:12.806Z,4.38
2018-02-02T16:07:40.353Z,4.37
2018-02-02T16:10:07.914Z,4.33
2018-02-02T16:12:35.458Z,4.41
2018-02-02T16:15:03.030Z,4.39
2018-02-02T16:17:30.559Z,4.28
2018-02-02T16:19:58.131Z,4.26
2018-02-02T16:22:25.686Z,4.27
2018-02-02T16:24:53.534Z,4.24
2018-02-02T16:27:21.165Z,4.23
2018-02-02T16:29:48.709Z,4.27
2018-02-02T16:32:16.246Z,4.35
2018-02-02T16:34:43.767Z,4.32
2018-02-02T16:37:11.293Z,4.29
2018-02-02T16:39:39.209Z,4.34
2018-02-02T16:42:06.827Z,4.29
2018-02-02T16:44:34.392Z,4.26
2018-02-02T16:47:01.905Z,4.21
2018-02-02T16:49:29.446Z,4.21
2018-02-02T16:51:56.976Z,4.07
2018-02-02T16:54:24.583Z,3.99
2018-02-02T16:56:52.441Z,3.99
2018-02-02T16:59:20.010Z,3.95
2018-02-02T17:01:47.866Z,3.95
2018-02-02T17:04:15.541Z,4.02
2018-02-02T17:06:43.181Z,4.07
2018-02-02T17:09:10.950Z,4.15
2018-02-02T17:11:38.550Z,4.16
2018-02-02T17:14:06.148Z,4.09
2018-02-02T17:16:33.728Z,4.10
2018-02-02T17:19:01.358Z,3.98
2018-02-02T17:21:28.912Z,3.97
2018-02-02T17:23:56.434Z,4.01
2018-02-02T17:26:23.972Z,4.07
2018-02-02T17:28:51.543Z,4.19
2018-02-02T17:31:19.220Z,4.18
2018-02-02T17:33:46.796Z,4.17
2018-02-02T17:36:14.328Z,4.04
2018-02-02T17:38:41.952Z,3.89
2018-02-02T17:41:09.487Z,3.93
2018-02-02T17:43:36.997Z,3.89
2018-02-02T17:46:04.881Z,3.92
2018-02-02T17:48:32.601Z,4.04
2018-02-02T17:51:00.141Z,4.01
2018-02-02T17:53:27.989Z,4.06
2018-02-02T17:55:55.575Z,3.92
2018-02-02T17:58:23.219Z,4.06
2018-02-02T18:00:53.345Z,4.06
2018-02-02T18:03:20.886Z,3.92
2018-02-02T18:05:48.428Z,3.93
2018-02-02T18:08:16.438Z,3.94
2018-02-02T18:10:43.968Z,4.02
2018-02-02T18:13:11.526Z,4.05
2018-02-02T18:15:39.043Z,4.08
2018-02-02T18:18:06.604Z,4.08
2018-02-02T18:20:34.152Z,3.92
2018-02-02T18:23:01.674Z,3.92
2018-02-02T18:25:29.230Z,3.93
2018-02-02T18:27:56.746Z,3.99
2018-02-02T18:30:24.294Z,3.87
2018-02-02T18:32:52.116Z,3.93
2018-02-02T18:35:19.663Z,3.95
2018-02-02T18:37:47.194Z,3.96
2018-02-02T18:40:14.712Z,3.88
2018-02-02T18:42:42.262Z,3.92
2018-02-02T18:45:09.861Z,3.93
2018-02-02T18:47:37.415Z,3.90
2018-02-02T18:50:04.945Z,3.88
2018-02-02T18:52:32.917Z,3.84
2018-02-02T18:55:00.427Z,3.87
2018-02-02T18:57:28.234Z,3.97
2018-02-02T18:59:55.787Z,3.79
2018-02-02T19:02:23.319Z,3.87
2018-02-02T19:04:50.881Z,3.91
2018-02-02T19:07:18.442Z,3.84
2018-02-02T19:09:46.060Z,3.85
2018-02-02T19:12:13.633Z,3.85
2018-02-02T19:14:41.439Z,3.83
2018-02-02T19:17:08.987Z,3.92
2018-02-02T19:19:36.801Z,3.78
2018-02-02T19:22:04.338Z,3.81
2018-02-02T19:24:31.949Z,3.88
2018-02-02T19:26:59.489Z,3.84
2018-02-02T19:29:27.032Z,3.81
2018-02-02T19:31:54.565Z,3.92
2018-02-02T19:34:22.097Z,3.96
2018-02-02T19:36:49.684Z,3.98
2018-02-02T19:39:17.252Z,4.03
2018-02-02T19:41:44.797Z,3.96
2018-02-02T19:44:12.392Z,3.98
2018-02-02T19:46:40.022Z,3.95
2018-02-02T19:49:07.659Z,4.00
2018-02-02T19:51:35.221Z,4.04
2018-02-02T19:54:02.778Z,3.99
2018-02-02T19:56:30.622Z,4.02
2018-02-02T19:58:58.398Z,3.98
2018-02-02T20:01:25.987Z,4.05
2018-02-02T20:03:54.247Z,3.96
2018-02-02T20:06:21.893Z,4.01
2018-02-02T20:08:50.723Z,3.95
2018-02-02T20:11:18.335Z,3.99
2018-02-02T20:13:46.198Z,4.03
2018-02-02T20:16:13.782Z,4.02
2018-02-02T20:18:41.348Z,4.04
2018-02-02T20:21:08.903Z,4.03
2018-02-02T20:23:36.452Z,4.02
2018-02-02T20:26:03.977Z,3.99
2018-02-02T20:28:31.517Z,3.99
2018-02-02T20:30:59.056Z,3.98
2018-02-02T20:33:26.617Z,3.98
2018-02-02T20:35:54.162Z,4.03
2018-02-02T20:38:22.011Z,4.14
2018-02-02T20:40:49.621Z,4.00
2018-02-02T20:43:17.183Z,4.00
2018-02-02T20:45:44.825Z,4.10
2018-02-02T20:48:12.405Z,4.05
2018-02-02T20:50:40.037Z,4.08
2018-02-02T20:53:07.592Z,4.07
2018-02-02T20:55:35.167Z,4.10
2018-02-02T20:58:02.721Z,4.06
2018-02-02T21:00:30.267Z,4.11
2018-02-02T21:02:57.837Z,3.99
2018-02-02T21:05:25.376Z,4.03
2018-02-02T21:07:52.916Z,4.05
2018-02-02T21:10:20.614Z,4.04
2018-02-02T21:12:48.161Z,4.03
2018-02-02T21:15:15.684Z,4.07
2018-02-02T21:17:43.306Z,4.11
2018-02-02T21:20:10.874Z,4.19
2018-02-02T21:22:38.419Z,4.17
2018-02-02T21:25:05.961Z,4.20
2018-02-02T21:27:33.507Z,4.17
2018-02-02T21:30:01.031Z,4.06
2018-02-02T21:32:28.563Z,4.09
2018-02-02T21:34:56.100Z,4.13
2018-02-02T21:37:23.768Z,4.16
2018-02-02T21:39:51.321Z,4.16
2018-02-02T21:42:19.098Z,4.10
2018-02-02T21:44:46.663Z,4.11
2018-02-02T21:47:14.530Z,4.18
2018-02-02T21:49:42.082Z,4.21
2018-02-02T21:52:09.862Z,4.14
2018-02-02T21:54:37.381Z,4.15
2018-02-02T21:57:05.014Z,4.20
2018-02-02T21:59:32.621Z,4.15
2018-02-02T22:02:00.188Z,4.05
2018-02-02T22:04:27.748Z,4.03
2018-02-02T22:06:55.310Z,4.13
2018-02-02T22:09:22.972Z,4.12
2018-02-02T22:11:50.603Z,4.03
2018-02-02T22:14:18.190Z,4.15
2018-02-02T22:16:46.080Z,4.03
2018-02-02T22:19:13.945Z,4.04
2018-02-02T22:21:41.521Z,4.08
2018-02-02T22:24:09.065Z,4.13
2018-02-02T22:26:36.838Z,4.25
2018-02-02T22:29:04.362Z,4.27
2018-02-02T22:31:31.907Z,4.21
2018-02-02T22:33:59.528Z,4.21
2018-02-02T22:36:27.079Z,4.31
2018-02-02T22:38:54.592Z,4.33
2018-02-02T22:41:22.170Z,4.34
2018-02-02T22:43:49.741Z,4.22
2018-02-02T22:46:17.271Z,4.20
2018-02-02T22:48:44.835Z,4.12
2018-02-02T22:51:12.350Z,4.06
2018-02-02T22:53:39.882Z,4.08
2018-02-02T22:56:07.428Z,3.96
2018-02-02T22:58:34.971Z,4.00
2018-02-02T23:01:02.509Z,4.00
2018-02-02T23:03:30.047Z,3.98
2018-02-02T23:05:57.586Z,4.00
2018-02-02T23:08:25.109Z,3.93
2018-02-02T23:10:52.931Z,3.99
2018-02-02T23:13:20.791Z,3.94
2018-02-02T23:15:48.288Z,4.03
2018-02-02T23:18:16.124Z,4.05
2018-02-02T23:20:43.885Z,4.09
2018-02-02T23:23:11.420Z,4.00
2018-02-02T23:25:38.985Z,4.06
2018-02-02T23:28:06.518Z,4.04
2018-02-02T23:30:34.334Z,3.98
2018-02-02T23:33:01.921Z,3.84
2018-02-02T23:35:29.762Z,3.92
2018-02-02T23:37:57.288Z,3.92
2018-02-02T23:40:24.827Z,3.99
2018-02-02T23:42:52.650Z,4.07
2018-02-02T23:45:20.470Z,4.07
2018-02-02T23:47:47.983Z,4.03
2018-02-02T23:50:15.541Z,4.02
2018-02-02T23:52:43.299Z,3.98
2018-02-02T23:55:11.193Z,4.04
2018-02-02T23:57:38.702Z,4.09
